Time;durP1;ratioP1;P1;durP2;ratioP2;P2;SDS_P1;SDS_P2;PMS_P1;PMS_P2;Temp;Humidity;BMP_temperature;BMP_pressure;BME280_temperature;BME280_humidity;BME280_pressure;Samples;Min_cycle;Max_cycle;Signal;HPM_P1;HPM_P2
2024/03/30 00:00:49;;;;;;;2.28;1.67;;;8.80;96.40;;;;;;5052385;28;20249;-63
2024/03/30 00:03:15;;;;;;;17.38;2.72;;;8.80;96.10;;;;;;5052285;28;20300;-63
2024/03/30 00:05:41;;;;;;;2.75;1.25;;;9.10;99.90;;;;;;5052239;28;20268;-63
2024/03/30 00:08:08;;;;;;;9.33;1.97;;;9.00;95.80;;;;;;5052228;28;20265;-63
2024/03/30 00:10:36;;;;;;;2.50;1.10;;;9.00;95.40;;;;;;5050971;28;20437;-63
2024/03/30 00:13:04;;;;;;;3.08;2.00;;;9.00;95.40;;;;;;5052041;28;20220;-63
2024/03/30 00:15:31;;;;;;;2.75;1.52;;;;;;;;;;5052007;28;20564;-63
2024/03/30 00:17:59;;;;;;;5.65;2.13;;;9.00;95.50;;;;;;5052041;28;20186;-63
2024/03/30 00:20:28;;;;;;;3.67;1.33;;;9.70;96.10;;;;;;5051808;28;20628;-63
2024/03/30 00:22:54;;;;;;;7.00;1.50;;;9.00;95.50;;;;;;5052058;28;20178;-63
2024/03/30 00:25:21;;;;;;;11.87;3.03;;;8.90;95.50;;;;;;5051903;28;20547;-63
2024/03/30 00:27:47;;;;;;;5.07;1.65;;;9.00;95.50;;;;;;5051697;28;20429;-63
2024/03/30 00:30:12;;;;;;;3.40;1.60;;;8.80;95.80;;;;;;5051487;28;20182;-63
2024/03/30 00:32:38;;;;;;;6.67;2.20;;;8.80;95.90;;;;;;5051993;28;20178;-63
2024/03/30 00:35:04;;;;;;;4.30;2.07;;;8.70;95.90;;;;;;5051903;28;20918;-63
2024/03/30 00:37:33;;;;;;;8.15;2.20;;;8.70;95.70;;;;;;5051513;28;20206;-63
2024/03/30 00:39:58;;;;;;;1.60;1.50;;;8.80;95.70;;;;;;5051374;28;20166;-63
2024/03/30 00:42:26;;;;;;;9.13;2.00;;;8.90;95.40;;;;;;5054418;28;20177;-63
2024/03/30 00:44:51;;;;;;;3.50;1.90;;;8.80;95.50;;;;;;5055972;28;20170;-63
2024/03/30 00:47:18;;;;;;;2.30;1.43;;;8.80;95.70;;;;;;5056317;28;20374;-63
2024/03/30 00:49:44;;;;;;;3.97;1.10;;;8.80;95.60;;;;;;5055924;28;20442;-63
2024/03/30 00:52:10;;;;;;;5.70;2.00;;;8.70;95.40;;;;;;5056008;28;20209;-63
2024/03/30 00:54:35;;;;;;;2.80;1.43;;;8.80;95.60;;;;;;5056013;28;20197;-63
2024/03/30 00:57:01;;;;;;;6.43;1.37;;;8.70;95.60;;;;;;5055965;28;20191;-63
2024/03/30 00:59:27;;;;;;;2.17;1.47;;;8.80;95.90;;;;;;5055772;28;20405;-63
2024/03/30 01:01:52;;;;;;;5.43;1.70;;;8.90;95.40;;;;;;5056625;28;20270;-63
2024/03/30 01:04:18;;;;;;;3.17;1.20;;;8.80;95.80;;;;;;5055846;28;20551;-63
2024/03/30 01:06:44;;;;;;;4.67;2.10;;;8.80;95.60;;;;;;5056540;28;20355;-63
2024/03/30 01:09:09;;;;;;;1.80;1.10;;;8.90;95.70;;;;;;5056072;28;20224;-63
2024/03/30 01:11:38;;;;;;;1.07;0.80;;;8.90;95.50;;;;;;5055899;28;20687;-63
2024/03/30 01:14:05;;;;;;;3.97;1.10;;;8.90;95.40;;;;;;5056017;28;20404;-63
2024/03/30 01:16:31;;;;;;;3.75;0.95;;;8.90;95.90;;;;;;5055860;28;20194;-63
2024/03/30 01:18:57;;;;;;;3.08;1.13;;;8.90;96.00;;;;;;5055463;28;20178;-63
2024/03/30 01:21:23;;;;;;;6.85;2.05;;;8.70;96.00;;;;;;5057375;28;20204;-63
2024/03/30 01:23:49;;;;;;;3.70;1.90;;;8.70;96.00;;;;;;5059951;28;20170;-63
2024/03/30 01:26:22;;;;;;;6.57;1.05;;;8.80;96.10;;;;;;5059220;28;20428;-63
2024/03/30 01:28:50;;;;;;;3.05;1.10;;;8.70;96.30;;;;;;5059881;28;20528;-63
2024/03/30 01:31:16;;;;;;;5.97;1.63;;;8.70;96.70;;;;;;5060030;28;20198;-63
2024/03/30 01:33:42;;;;;;;4.37;1.90;;;8.70;96.40;;;;;;5060718;28;20245;-63
2024/03/30 01:36:08;;;;;;;5.03;1.43;;;8.80;96.40;;;;;;5061226;28;20451;-62
2024/03/30 01:38:34;;;;;;;4.63;1.30;;;8.80;96.10;;;;;;5061492;28;20448;-62
2024/03/30 01:41:00;;;;;;;5.70;2.00;;;8.80;96.20;;;;;;5061099;28;20174;-63
2024/03/30 01:43:25;;;;;;;3.03;1.30;;;8.70;96.10;;;;;;5060065;28;20182;-63
2024/03/30 01:45:53;;;;;;;4.73;2.03;;;8.70;96.30;;;;;;5059437;28;20698;-63
2024/03/30 01:48:21;;;;;;;5.13;1.17;;;8.70;96.40;;;;;;5059337;28;20175;-63
2024/03/30 01:50:48;;;;;;;2.70;1.20;;;8.60;96.40;;;;;;5058862;28;20624;-63
2024/03/30 01:53:18;;;;;;;7.03;1.42;;;8.70;96.50;;;;;;5059530;28;20170;-63
2024/03/30 01:55:45;;;;;;;0.90;0.75;;;8.90;99.90;;;;;;5059420;28;20652;-63
2024/03/30 01:58:15;;;;;;;6.20;2.25;;;8.70;96.50;;;;;;5058943;28;20174;-63
2024/03/30 02:00:42;;;;;;;5.80;1.10;;;8.80;96.30;;;;;;5058939;28;20182;-63
2024/03/30 02:03:08;;;;;;;5.70;1.88;;;8.90;95.90;;;;;;5058846;28;20209;-63
2024/03/30 02:05:34;;;;;;;3.75;1.42;;;9.40;99.90;;;;;;5058574;28;20174;-63
2024/03/30 02:08:04;;;;;;;4.10;1.73;;;9.00;95.60;;;;;;5058674;28;20192;-63
2024/03/30 02:10:30;;;;;;;9.05;1.45;;;9.00;94.90;;;;;;5058531;28;20174;-63
2024/03/30 02:12:55;;;;;;;1.15;0.88;;;9.10;94.70;;;;;;5058892;28;20228;-63
2024/03/30 02:15:22;;;;;;;7.40;1.30;;;9.10;95.00;;;;;;5058201;28;20174;-63
2024/03/30 02:17:48;;;;;;;1.58;0.90;;;9.10;95.00;;;;;;5058668;28;20197;-62
2024/03/30 02:20:13;;;;;;;1.23;0.70;;;9.10;94.70;;;;;;5058630;28;20169;-63
2024/03/30 02:22:39;;;;;;;4.30;1.30;;;9.20;94.90;;;;;;5058794;28;20183;-63
2024/03/30 02:25:04;;;;;;;2.00;0.80;;;9.20;95.00;;;;;;5058267;28;20167;-63
2024/03/30 02:27:33;;;;;;;1.80;0.80;;;9.20;94.80;;;;;;5058276;28;20439;-63
2024/03/30 02:30:01;;;;;;;5.57;1.30;;;9.20;94.70;;;;;;5058135;28;20169;-63
2024/03/30 02:32:28;;;;;;;0.68;0.68;;;9.20;94.80;;;;;;5056947;28;20213;-63
2024/03/30 02:34:54;;;;;;;4.28;2.10;;;9.10;94.90;;;;;;5058230;28;20190;-63
2024/03/30 02:37:20;;;;;;;1.15;0.88;;;9.20;95.20;;;;;;5059342;28;20213;-63
2024/03/30 02:39:46;;;;;;;3.03;0.93;;;9.20;95.20;;;;;;5058015;28;20363;-63
2024/03/30 02:42:11;;;;;;;5.70;1.30;;;9.00;95.30;;;;;;5058084;28;20466;-63
2024/03/30 02:44:37;;;;;;;1.70;1.50;;;9.00;95.20;;;;;;5057644;28;20166;-63
2024/03/30 02:47:03;;;;;;;2.23;1.13;;;9.10;95.00;;;;;;5058175;28;20684;-63
2024/03/30 02:49:29;;;;;;;2.93;0.80;;;9.00;94.60;;;;;;5057862;28;20648;-63
2024/03/30 02:51:55;;;;;;;1.77;1.33;;;9.10;94.60;;;;;;5057709;28;20190;-63
2024/03/30 02:54:20;;;;;;;2.03;1.80;;;9.10;94.70;;;;;;5058168;28;20181;-63
2024/03/30 02:56:46;;;;;;;2.43;1.10;;;9.10;94.40;;;;;;5057974;28;20196;-63
2024/03/30 02:59:12;;;;;;;2.00;1.10;;;9.20;93.90;;;;;;5057845;28;20166;-63
2024/03/30 03:01:37;;;;;;;7.83;0.93;;;9.30;92.20;;;;;;5057830;28;20206;-62
2024/03/30 03:04:04;;;;;;;2.03;1.07;;;9.50;91.90;;;;;;5057696;28;20201;-63
2024/03/30 03:06:30;;;;;;;1.67;1.05;;;9.60;91.80;;;;;;5057615;28;20198;-63
2024/03/30 03:08:56;;;;;;;4.95;1.02;;;9.60;92.10;;;;;;5057687;28;20300;-63
2024/03/30 03:11:21;;;;;;;3.07;1.00;;;9.50;92.30;;;;;;5057410;28;20217;-63
2024/03/30 03:13:47;;;;;;;0.97;0.63;;;9.40;92.20;;;;;;5057511;28;20220;-63
2024/03/30 03:16:12;;;;;;;1.83;1.47;;;9.30;92.50;;;;;;5057502;28;20220;-63
2024/03/30 03:18:39;;;;;;;1.07;0.80;;;9.30;92.50;;;;;;5057656;28;20171;-63
2024/03/30 03:21:05;;;;;;;5.07;0.90;;;9.30;92.40;;;;;;5057321;28;20678;-63
2024/03/30 03:23:32;;;;;;;2.93;0.93;;;9.30;91.80;;;;;;5057918;28;20174;-63
2024/03/30 03:25:58;;;;;;;0.93;0.60;;;9.40;92.20;;;;;;5057772;28;20451;-63
2024/03/30 03:28:23;;;;;;;1.13;0.50;;;9.30;92.60;;;;;;5057510;28;20239;-63
2024/03/30 03:30:49;;;;;;;2.60;1.27;;;9.30;92.40;;;;;;5057800;28;20469;-63
2024/03/30 03:33:15;;;;;;;1.30;0.90;;;9.30;92.30;;;;;;5056438;28;20192;-63
2024/03/30 03:35:41;;;;;;;1.90;1.03;;;9.30;99.90;;;;;;5058343;28;20170;-63
2024/03/30 03:38:07;;;;;;;2.80;1.33;;;9.30;94.00;;;;;;5059059;28;20405;-63
2024/03/30 03:40:33;;;;;;;2.33;1.05;;;9.30;92.70;;;;;;5057554;28;20498;-63
2024/03/30 03:42:59;;;;;;;3.38;0.98;;;9.20;92.40;;;;;;5057592;28;20178;-63
2024/03/30 03:45:24;;;;;;;2.43;1.50;;;9.10;92.30;;;;;;5057620;28;20166;-63
2024/03/30 03:47:50;;;;;;;4.00;0.80;;;9.10;92.40;;;;;;5057666;28;20561;-63
2024/03/30 03:50:16;;;;;;;4.30;0.73;;;8.90;92.90;;;;;;5056921;28;20174;-63
2024/03/30 03:52:41;;;;;;;0.50;0.47;;;8.90;93.00;;;;;;5057262;28;20370;-63
2024/03/30 03:55:07;;;;;;;1.40;0.53;;;8.90;93.10;;;;;;5057528;28;20248;-63
2024/03/30 03:57:33;;;;;;;5.60;0.63;;;8.90;93.10;;;;;;5056782;28;20247;-63
2024/03/30 03:59:58;;;;;;;2.17;0.77;;;9.00;93.00;;;;;;5057160;28;20296;-62
2024/03/30 04:02:24;;;;;;;1.47;0.70;;;9.00;93.00;;;;;;5056596;28;20174;-63
2024/03/30 04:04:53;;;;;;;1.33;0.93;;;9.00;92.40;;;;;;5056564;28;20262;-63
2024/03/30 04:07:20;;;;;;;1.25;0.50;;;9.20;92.20;;;;;;5056936;28;20194;-63
2024/03/30 04:09:46;;;;;;;3.03;1.00;;;9.10;94.10;;;;;;5056634;28;20182;-63
2024/03/30 04:12:11;;;;;;;1.90;1.10;;;9.00;95.80;;;;;;5056757;28;20618;-63
2024/03/30 04:14:37;;;;;;;8.57;1.43;;;9.10;93.20;;;;;;5056491;28;20644;-63
2024/03/30 04:17:03;;;;;;;2.53;0.77;;;9.00;93.00;;;;;;5056800;28;20225;-63
2024/03/30 04:19:28;;;;;;;0.60;0.50;;;8.90;94.30;;;;;;5056925;28;20258;-63
2024/03/30 04:21:56;;;;;;;1.97;1.00;;;9.10;93.80;;;;;;5056527;28;20177;-63
2024/03/30 04:24:22;;;;;;;3.25;0.85;;;9.10;93.30;;;;;;5056451;28;20607;-63
2024/03/30 04:26:48;;;;;;;4.90;0.75;;;9.10;93.30;;;;;;5056284;28;20208;-62
2024/03/30 04:29:14;;;;;;;3.30;0.87;;;9.10;93.60;;;;;;5056115;28;20165;-63
2024/03/30 04:31:39;;;;;;;2.60;2.40;;;9.20;93.60;;;;;;5056869;28;20198;-63
2024/03/30 04:34:05;;;;;;;1.70;0.57;;;9.30;93.30;;;;;;5057022;28;20223;-62
2024/03/30 04:36:30;;;;;;;3.70;1.07;;;9.20;93.40;;;;;;5056744;28;20250;-63
2024/03/30 04:38:56;;;;;;;2.00;0.80;;;9.20;93.70;;;;;;5056599;28;20648;-63
2024/03/30 04:41:22;;;;;;;1.30;0.87;;;9.30;93.70;;;;;;5055271;28;20584;-63
2024/03/30 04:43:47;;;;;;;1.83;0.87;;;9.30;93.50;;;;;;5056740;28;20245;-63
2024/03/30 04:46:13;;;;;;;1.93;0.60;;;9.30;93.60;;;;;;5055639;28;20197;-63
2024/03/30 04:48:39;;;;;;;2.73;0.80;;;9.30;93.70;;;;;;5056187;28;20199;-63
2024/03/30 04:51:04;;;;;;;1.27;0.70;;;9.30;93.70;;;;;;5055798;28;20194;-63
2024/03/30 04:53:35;;;;;;;0.70;0.60;;;9.30;94.00;;;;;;5055593;28;20209;-63
2024/03/30 04:56:00;;;;;;;2.03;0.98;;;9.20;93.90;;;;;;5058028;28;20194;-63
2024/03/30 04:58:28;;;;;;;0.80;0.63;;;9.30;93.80;;;;;;5062597;28;20262;-63
2024/03/30 05:00:58;;;;;;;3.65;1.08;;;9.30;93.90;;;;;;5062143;28;20180;-63
2024/03/30 05:03:24;;;;;;;0.70;0.57;;;9.30;94.00;;;;;;5062425;28;20316;-63
2024/03/30 05:05:50;;;;;;;1.20;0.60;;;9.10;99.90;;;;;;5062453;28;20194;-63
2024/03/30 05:08:16;;;;;;;3.90;0.87;;;9.20;95.10;;;;;;5063052;28;20232;-63
2024/03/30 05:10:42;;;;;;;8.23;1.37;;;9.10;94.10;;;;;;5063292;28;20740;-63
2024/03/30 05:13:08;;;;;;;1.77;0.60;;;9.00;94.20;;;;;;5062848;28;20454;-63
2024/03/30 05:15:41;;;;;;;1.00;0.83;;;8.70;99.90;;;;;;5062832;28;20582;-63
2024/03/30 05:18:08;;;;;;;1.55;1.05;;;9.10;93.60;;;;;;5061731;28;20174;-63
2024/03/30 05:20:50;;;;;;;5.60;0.77;;;9.20;93.90;;;;;;5062169;28;20174;-63
2024/03/30 05:23:23;;;;;;;1.23;0.90;;;9.20;94.30;;;;;;5063951;28;20170;-63
2024/03/30 05:25:50;;;;;;;1.30;0.70;;;9.30;99.90;;;;;;5063929;28;20178;-62
2024/03/30 05:28:21;;;;;;;1.00;0.93;;;9.10;94.20;;;;;;5064346;28;20221;-62
2024/03/30 05:30:48;;;;;;;2.25;0.75;;;9.20;94.20;;;;;;5065131;28;20194;-63
2024/03/30 05:33:14;;;;;;;1.77;0.80;;;9.10;94.40;;;;;;5064768;28;20560;-63
2024/03/30 05:35:40;;;;;;;2.25;0.98;;;9.50;99.90;;;;;;5064509;28;20182;-62
2024/03/30 05:38:06;;;;;;;0.98;0.85;;;9.30;94.00;;;;;;5064598;28;20238;-62
2024/03/30 05:40:33;;;;;;;10.32;2.03;;;9.30;94.10;;;;;;5064171;28;20604;-63
2024/03/30 05:43:02;;;;;;;1.15;0.68;;;9.30;94.20;;;;;;5063916;28;20663;-63
2024/03/30 05:45:29;;;;;;;1.48;1.08;;;9.30;94.00;;;;;;5064414;28;20216;-63
2024/03/30 05:47:54;;;;;;;0.68;0.68;;;9.20;94.10;;;;;;5063045;28;20190;-63
2024/03/30 05:50:21;;;;;;;1.80;0.87;;;9.20;94.30;;;;;;5063897;28;20247;-63
2024/03/30 05:52:47;;;;;;;1.00;0.90;;;9.20;94.30;;;;;;5064294;28;20421;-63
2024/03/30 05:55:13;;;;;;;4.10;1.23;;;9.20;94.30;;;;;;5064137;28;20208;-63
2024/03/30 05:57:43;;;;;;;3.57;1.47;;;9.20;94.20;;;;;;5064583;28;20746;-63
2024/03/30 06:00:10;;;;;;;2.90;0.95;;;9.20;94.20;;;;;;5064015;28;20174;-63
2024/03/30 06:02:41;;;;;;;2.10;1.10;;;9.20;94.30;;;;;;5064369;28;20733;-63
2024/03/30 06:05:07;;;;;;;5.95;1.20;;;9.30;94.20;;;;;;5063948;28;20170;-63
2024/03/30 06:07:33;;;;;;;1.67;1.13;;;9.30;93.60;;;;;;5061916;28;20198;-63
2024/03/30 06:10:00;;;;;;;10.60;1.30;;;9.40;93.90;;;;;;5060865;28;20600;-63
2024/03/30 06:12:26;;;;;;;3.90;1.02;;;9.40;94.20;;;;;;5060821;28;20649;-63
2024/03/30 06:14:51;;;;;;;4.33;0.80;;;9.40;94.20;;;;;;5061139;28;20174;-63
2024/03/30 06:17:17;;;;;;;0.63;0.63;;;9.40;94.00;;;;;;5060309;28;20208;-63
2024/03/30 06:19:43;;;;;;;4.10;1.13;;;9.40;93.90;;;;;;5060326;28;20705;-63
2024/03/30 06:22:09;;;;;;;0.80;0.57;;;9.50;94.10;;;;;;5060356;28;20198;-63
2024/03/30 06:24:38;;;;;;;1.57;1.13;;;9.40;94.20;;;;;;5060378;28;20189;-63
2024/03/30 06:27:06;;;;;;;3.55;1.10;;;9.40;94.10;;;;;;5060650;28;20436;-63
2024/03/30 06:29:38;;;;;;;9.85;1.45;;;9.50;93.80;;;;;;5059948;28;20170;-63
2024/03/30 06:32:05;;;;;;;1.15;1.05;;;9.60;93.90;;;;;;5060055;28;20198;-63
2024/03/30 06:34:31;;;;;;;1.90;0.90;;;9.60;93.90;;;;;;5060552;28;20166;-63
2024/03/30 06:36:57;;;;;;;1.50;1.15;;;9.60;94.10;;;;;;5060658;28;20571;-63
2024/03/30 06:39:22;;;;;;;9.80;2.20;;;9.70;94.00;;;;;;5060352;28;20174;-63
2024/03/30 06:44:33;;;;;;;6.30;1.27;;;9.80;93.10;;;;;;5054017;28;20658;-63
2024/03/30 06:46:59;;;;;;;4.80;1.15;;;9.80;93.10;;;;;;5053633;28;20194;-63
2024/03/30 06:49:24;;;;;;;3.13;1.07;;;9.90;93.20;;;;;;5053526;28;20686;-63
2024/03/30 06:51:50;;;;;;;2.47;1.47;;;10.00;92.70;;;;;;5053700;28;20974;-63
2024/03/30 06:54:16;;;;;;;3.00;1.80;;;10.00;92.80;;;;;;5053604;28;20181;-63
2024/03/30 06:56:42;;;;;;;2.37;0.80;;;10.10;92.90;;;;;;5053464;28;20277;-63
2024/03/30 06:59:08;;;;;;;1.05;0.90;;;10.20;93.10;;;;;;5053369;28;20550;-64
2024/03/30 07:01:35;;;;;;;3.55;1.00;;;10.20;92.80;;;;;;5053533;28;20201;-64
2024/03/30 07:04:02;;;;;;;2.50;1.10;;;10.30;93.20;;;;;;5053458;28;20178;-63
2024/03/30 07:06:28;;;;;;;4.63;1.10;;;10.30;93.20;;;;;;5053485;28;20308;-63
2024/03/30 07:08:57;;;;;;;3.47;1.13;;;10.40;92.50;;;;;;5053312;28;20781;-64
2024/03/30 07:11:23;;;;;;;4.32;1.80;;;10.60;92.80;;;;;;5053495;28;20213;-63
2024/03/30 07:13:49;;;;;;;11.37;2.43;;;10.70;92.90;;;;;;5053228;28;20579;-63
2024/03/30 07:16:15;;;;;;;4.00;1.60;;;10.80;92.60;;;;;;5053246;28;20429;-63
2024/03/30 07:18:42;;;;;;;2.37;0.90;;;10.90;92.40;;;;;;5051568;28;20169;-62
2024/03/30 07:21:08;;;;;;;2.63;1.77;;;11.00;92.90;;;;;;5053054;28;20412;-63
2024/03/30 07:23:33;;;;;;;4.93;1.10;;;11.00;93.10;;;;;;5053113;28;20775;-63
2024/03/30 07:26:06;;;;;;;2.00;1.07;;;11.10;93.70;;;;;;5052992;28;20194;-63
2024/03/30 07:28:32;;;;;;;6.40;1.90;;;11.20;92.40;;;;;;5052879;28;20170;-63
2024/03/30 07:31:05;;;;;;;10.20;1.17;;;11.30;92.30;;;;;;5052711;28;20444;-63
2024/03/30 07:33:32;;;;;;;2.07;0.80;;;11.40;92.10;;;;;;5053073;28;20409;-63
2024/03/30 07:35:57;;;;;;;2.73;1.20;;;11.60;92.40;;;;;;5052653;28;20446;-63
2024/03/30 07:38:31;;;;;;;3.87;1.20;;;11.70;91.90;;;;;;5052884;28;20404;-63
2024/03/30 07:40:58;;;;;;;5.13;1.13;;;11.80;92.20;;;;;;5052987;28;20525;-63
2024/03/30 07:43:24;;;;;;;1.40;0.90;;;12.00;92.70;;;;;;5052858;28;20415;-63
2024/03/30 07:45:49;;;;;;;2.03;0.90;;;12.10;99.90;;;;;;5052550;28;20972;-63
2024/03/30 07:48:15;;;;;;;3.00;1.10;;;12.20;93.60;;;;;;5052625;28;20166;-63
2024/03/30 07:50:40;;;;;;;1.37;1.17;;;12.40;91.90;;;;;;5052169;28;20174;-63
2024/03/30 07:53:06;;;;;;;1.80;1.60;;;12.60;92.20;;;;;;5052566;28;20174;-63
2024/03/30 07:55:32;;;;;;;1.20;1.10;;;12.70;99.90;;;;;;5052548;28;20169;-64
2024/03/30 07:57:58;;;;;;;4.80;1.60;;;12.90;91.80;;;;;;5052500;28;20200;-63
2024/03/30 08:00:24;;;;;;;1.80;0.80;;;13.00;90.80;;;;;;5052233;28;20253;-63
2024/03/30 08:02:50;;;;;;;3.60;1.37;;;13.10;90.60;;;;;;5052458;28;20433;-63
2024/03/30 08:05:18;;;;;;;3.80;1.83;;;13.20;90.30;;;;;;5052281;28;20178;-62
2024/03/30 08:07:44;;;;;;;6.53;3.20;;;13.20;90.80;;;;;;5052162;28;20432;-63
2024/03/30 08:10:10;;;;;;;5.53;2.57;;;13.30;90.90;;;;;;5051961;28;20409;-63
2024/03/30 08:12:37;;;;;;;5.30;1.23;;;13.30;85.40;;;;;;5052329;28;20210;-63
2024/03/30 08:15:03;;;;;;;5.23;3.20;;;13.40;86.80;;;;;;5052247;28;20405;-62
2024/03/30 08:17:29;;;;;;;7.20;3.73;;;13.40;90.30;;;;;;5051787;28;20434;-63
2024/03/30 08:19:54;;;;;;;11.30;4.07;;;13.40;90.60;;;;;;5051870;28;20785;-62
2024/03/30 08:22:20;;;;;;;4.40;2.60;;;13.60;90.60;;;;;;5052058;28;20170;-63
2024/03/30 08:24:45;;;;;;;3.70;2.10;;;13.70;89.90;;;;;;5052027;28;20228;-63
2024/03/30 08:27:11;;;;;;;4.50;1.53;;;13.80;86.90;;;;;;5051896;28;20741;-63
2024/03/30 08:29:36;;;;;;;6.43;2.07;;;14.00;79.00;;;;;;5051625;28;20174;-63
2024/03/30 08:32:02;;;;;;;3.20;1.60;;;14.20;84.40;;;;;;5051122;28;20620;-63
2024/03/30 08:34:28;;;;;;;11.03;7.13;;;14.40;82.50;;;;;;5051665;28;20179;-63
2024/03/30 08:36:53;;;;;;;4.67;2.87;;;14.60;85.70;;;;;;5051673;28;20242;-63
2024/03/30 08:39:19;;;;;;;7.50;4.13;;;14.70;83.00;;;;;;5051320;28;20170;-63
2024/03/30 08:41:45;;;;;;;8.13;1.93;;;14.80;84.70;;;;;;5051833;28;20177;-63
2024/03/30 08:44:10;;;;;;;5.03;1.87;;;15.00;82.50;;;;;;5051679;28;20185;-63
2024/03/30 08:46:36;;;;;;;4.63;2.87;;;15.00;81.50;;;;;;5050199;28;20276;-63
2024/03/30 08:49:06;;;;;;;6.93;1.10;;;15.10;78.60;;;;;;5051187;28;20261;-64
2024/03/30 08:51:32;;;;;;;5.10;2.20;;;15.20;76.80;;;;;;5051532;28;20202;-63
2024/03/30 08:54:07;;;;;;;2.40;1.07;;;15.40;76.80;;;;;;5051296;28;20420;-63
2024/03/30 08:56:33;;;;;;;8.20;2.10;;;15.50;74.40;;;;;;5050831;28;20431;-64
2024/03/30 08:58:59;;;;;;;1.37;1.23;;;15.70;76.40;;;;;;5051237;28;20420;-64
2024/03/30 09:01:25;;;;;;;3.47;1.00;;;15.70;71.90;;;;;;5051483;28;20420;-63
2024/03/30 09:03:51;;;;;;;7.70;6.00;;;15.90;77.50;;;;;;5051433;28;20503;-64
2024/03/30 09:06:17;;;;;;;9.93;5.60;;;16.00;81.10;;;;;;5051600;28;20586;-64
2024/03/30 09:08:43;;;;;;;11.57;6.20;;;16.00;81.60;;;;;;5050878;28;20419;-64
2024/03/30 09:11:09;;;;;;;9.63;5.93;;;16.00;82.90;;;;;;5051250;28;20449;-63
2024/03/30 09:13:35;;;;;;;7.77;3.40;;;16.10;82.50;;;;;;5051455;28;20188;-63
2024/03/30 09:16:00;;;;;;;7.53;4.20;;;16.10;81.70;;;;;;5051231;28;20426;-64
2024/03/30 09:18:26;;;;;;;17.67;6.10;;;16.20;82.20;;;;;;5051274;28;20182;-64
2024/03/30 09:20:52;;;;;;;8.77;5.77;;;16.20;83.90;;;;;;5051184;28;20774;-64
2024/03/30 09:23:17;;;;;;;8.37;4.80;;;16.00;82.50;;;;;;5051213;28;20178;-63
2024/03/30 09:25:43;;;;;;;6.17;3.27;;;16.10;95.70;;;;;;5051348;28;20193;-63
2024/03/30 09:28:09;;;;;;;12.10;6.33;;;16.00;82.80;;;;;;5051163;28;20170;-63
2024/03/30 09:30:35;;;;;;;8.53;4.23;;;16.00;83.10;;;;;;5050900;28;20213;-63
2024/03/30 09:33:00;;;;;;;6.40;2.80;;;15.90;84.10;;;;;;5051204;28;20212;-63
2024/03/30 09:35:26;;;;;;;7.30;2.70;;;15.90;84.20;;;;;;5051236;28;20174;-63
2024/03/30 09:37:52;;;;;;;11.37;4.97;;;15.90;83.80;;;;;;5051099;28;20193;-63
2024/03/30 09:40:18;;;;;;;7.60;4.17;;;15.80;83.90;;;;;;5050882;28;20392;-63
2024/03/30 09:42:45;;;;;;;6.23;3.17;;;15.80;83.30;;;;;;5053328;28;20279;-63
2024/03/30 09:45:12;;;;;;;3.80;3.10;;;15.80;83.10;;;;;;5054968;28;20523;-64
2024/03/30 09:47:42;;;;;;;4.37;2.13;;;15.70;84.90;;;;;;5054697;28;20429;-63
2024/03/30 09:50:09;;;;;;;8.30;3.20;;;15.70;82.30;;;;;;5054859;28;20405;-64
2024/03/30 09:52:39;;;;;;;4.57;2.83;;;15.80;82.00;;;;;;5055069;28;20546;-63
2024/03/30 09:55:10;;;;;;;5.20;1.77;;;15.70;82.60;;;;;;5054841;28;20444;-63
2024/03/30 09:57:42;;;;;;;6.33;2.40;;;15.70;79.80;;;;;;5055153;28;21018;-63
2024/03/30 10:00:11;;;;;;;2.77;2.20;;;15.60;79.00;;;;;;5054474;28;20470;-63
2024/03/30 10:02:37;;;;;;;2.93;1.07;;;15.60;80.00;;;;;;5054746;28;20451;-63
2024/03/30 10:05:03;;;;;;;5.27;1.73;;;15.60;81.50;;;;;;5054785;28;20856;-63
2024/03/30 10:07:46;;;;;;;11.60;2.17;;;15.70;81.70;;;;;;5054494;28;20432;-63
2024/03/30 10:10:15;;;;;;;6.00;1.70;;;15.70;83.20;;;;;;5054265;28;20857;-63
2024/03/30 10:12:57;;;;;;;5.60;1.73;;;15.80;83.00;;;;;;5054380;28;20440;-64
2024/03/30 10:15:49;;;;;;;3.23;1.80;;;15.90;83.10;;;;;;5054554;28;20855;-63
2024/03/30 10:18:15;;;;;;;2.50;1.97;;;16.10;80.90;;;;;;5054371;28;20416;-64
2024/03/30 10:20:41;;;;;;;1.80;1.37;;;16.10;82.00;;;;;;5053770;28;20485;-64
2024/03/30 10:23:07;;;;;;;9.77;1.90;;;16.30;80.10;;;;;;5054267;28;20899;-63
2024/03/30 10:25:34;;;;;;;3.13;1.27;;;16.90;95.80;;;;;;5054197;28;20413;-64
2024/03/30 10:28:00;;;;;;;11.73;1.80;;;16.60;80.20;;;;;;5053871;28;20233;-64
2024/03/30 10:30:26;;;;;;;6.93;1.83;;;16.80;77.30;;;;;;5053906;28;20413;-64
2024/03/30 10:32:54;;;;;;;2.63;1.60;;;16.90;76.20;;;;;;5054019;28;20209;-63
2024/03/30 10:35:21;;;;;;;11.10;2.40;;;17.00;78.60;;;;;;5053926;28;20185;-64
2024/03/30 10:37:51;;;;;;;6.47;1.03;;;17.00;75.30;;;;;;5053886;28;21022;-64
2024/03/30 10:40:17;;;;;;;5.87;2.00;;;16.90;75.30;;;;;;5053801;28;20411;-64
2024/03/30 10:42:42;;;;;;;3.90;1.87;;;16.80;71.90;;;;;;5053928;28;20408;-64
2024/03/30 10:45:08;;;;;;;8.83;2.90;;;16.80;74.60;;;;;;5053820;28;20596;-64
2024/03/30 10:47:36;;;;;;;4.70;2.27;;;16.70;74.60;;;;;;5053722;28;20230;-64
2024/03/30 10:50:02;;;;;;;3.90;2.30;;;16.70;75.70;;;;;;5053444;28;20919;-64
2024/03/30 10:52:29;;;;;;;7.37;2.30;;;16.50;76.60;;;;;;5053892;28;20491;-62
2024/03/30 10:54:55;;;;;;;11.20;2.10;;;16.50;74.50;;;;;;5053152;28;20421;-64
2024/03/30 10:57:25;;;;;;;8.30;2.53;;;16.40;72.20;;;;;;5053605;28;20922;-64
2024/03/30 10:59:53;;;;;;;9.93;2.60;;;16.40;72.90;;;;;;5053454;28;20855;-64
2024/03/30 11:02:23;;;;;;;4.63;3.27;;;16.50;72.80;;;;;;5053479;28;20405;-63
2024/03/30 11:04:53;;;;;;;7.93;3.50;;;16.60;73.80;;;;;;5053740;28;20412;-64
2024/03/30 11:07:21;;;;;;;13.03;2.57;;;16.70;75.40;;;;;;5053647;28;20430;-64
2024/03/30 11:09:46;;;;;;;5.63;2.70;;;16.70;75.90;;;;;;5053140;28;20894;-64
2024/03/30 11:12:13;;;;;;;13.43;2.70;;;16.80;76.40;;;;;;5053579;28;20507;-63
2024/03/30 11:14:40;;;;;;;3.17;1.67;;;16.90;69.80;;;;;;5053431;28;20466;-64
2024/03/30 11:17:34;;;;;;;6.00;2.70;;;17.10;70.30;;;;;;5053106;28;20429;-63
2024/03/30 11:20:18;;;;;;;7.63;2.67;;;17.20;69.90;;;;;;5052985;28;20433;-64
2024/03/30 11:23:15;;;;;;;3.30;1.27;;;17.40;70.40;;;;;;5053160;28;20488;-64
2024/03/30 11:25:47;;;;;;;6.10;2.20;;;17.90;80.30;;;;;;5053030;28;20423;-64
2024/03/30 11:28:30;;;;;;;5.80;2.40;;;17.80;68.90;;;;;;5053042;28;20917;-64
2024/03/30 11:31:29;;;;;;;10.47;2.07;;;18.00;67.90;;;;;;5052896;28;21029;-64
2024/03/30 11:34:05;;;;;;;6.70;2.40;;;18.10;59.30;;;;;;5044187;28;20423;-64
2024/03/30 11:36:44;;;;;;;5.60;1.50;;;18.40;60.20;;;;;;5052763;28;20450;-63
2024/03/30 11:39:35;;;;;;;10.13;1.70;;;18.60;59.40;;;;;;5052638;28;20411;-63
2024/03/30 11:42:08;;;;;;;8.63;2.07;;;18.80;56.70;;;;;;5052717;28;20407;-64
2024/03/30 11:44:36;;;;;;;4.73;1.20;;;19.00;53.40;;;;;;5052822;28;20857;-63
2024/03/30 11:47:02;;;;;;;8.07;2.33;;;19.10;54.00;;;;;;5052644;28;20497;-64
2024/03/30 11:49:28;;;;;;;4.13;1.43;;;19.10;54.30;;;;;;5052292;28;20503;-64
2024/03/30 11:51:58;;;;;;;7.97;3.00;;;19.20;52.50;;;;;;5052484;28;20815;-64
2024/03/30 11:54:27;;;;;;;13.27;2.97;;;19.30;53.10;;;;;;5052608;28;20443;-64
2024/03/30 11:57:10;;;;;;;8.37;3.33;;;19.40;51.70;;;;;;5052418;28;20421;-64
2024/03/30 11:59:38;;;;;;;4.10;1.57;;;19.30;60.70;;;;;;5052236;28;20499;-63
2024/03/30 12:02:11;;;;;;;2.77;1.33;;;18.80;58.50;;;;;;5052438;28;20493;-63
2024/03/30 12:04:46;;;;;;;5.30;1.70;;;18.10;59.00;;;;;;5052206;28;20414;-63
2024/03/30 12:07:19;;;;;;;3.97;1.97;;;17.80;60.10;;;;;;5051625;28;20416;-63
2024/03/30 12:09:48;;;;;;;7.10;2.00;;;17.60;61.30;;;;;;5052164;28;20411;-63
2024/03/30 12:12:22;;;;;;;5.70;2.17;;;17.40;62.80;;;;;;5052137;28;20451;-63
2024/03/30 12:14:50;;;;;;;2.83;1.53;;;17.00;63.20;;;;;;5052179;28;20413;-63
2024/03/30 12:17:16;;;;;;;4.80;2.20;;;16.60;65.30;;;;;;5051850;28;20426;-64
2024/03/30 12:19:45;;;;;;;5.33;1.70;;;16.50;67.30;;;;;;5051426;28;20489;-63
2024/03/30 12:22:11;;;;;;;3.07;2.17;;;16.80;67.60;;;;;;5052112;28;20440;-63
2024/03/30 12:24:37;;;;;;;3.30;1.70;;;16.90;67.10;;;;;;5051851;28;20895;-63
2024/03/30 12:27:03;;;;;;;8.23;1.80;;;16.90;67.10;;;;;;5051704;28;20264;-63
2024/03/30 12:29:29;;;;;;;6.60;1.80;;;17.10;67.70;;;;;;5051669;28;20179;-64
2024/03/30 12:31:55;;;;;;;3.23;1.30;;;17.30;64.90;;;;;;5052000;28;20572;-63
2024/03/30 12:34:21;;;;;;;2.73;2.03;;;17.10;65.40;;;;;;5052100;28;20176;-63
2024/03/30 12:36:47;;;;;;;11.87;2.30;;;17.10;66.10;;;;;;5051649;28;20898;-63
2024/03/30 12:39:14;;;;;;;2.30;1.60;;;17.10;65.90;;;;;;5051740;28;20413;-64
2024/03/30 12:41:40;;;;;;;4.47;1.60;;;17.10;65.80;;;;;;5051761;28;20496;-63
2024/03/30 12:44:08;;;;;;;3.03;1.43;;;17.00;66.50;;;;;;5051685;28;20442;-63
2024/03/30 12:46:35;;;;;;;9.17;2.23;;;17.00;66.10;;;;;;5051518;28;20197;-64
2024/03/30 12:49:02;;;;;;;4.77;2.10;;;17.00;66.40;;;;;;5051349;28;20900;-64
2024/03/30 12:51:33;;;;;;;3.57;1.70;;;17.00;66.70;;;;;;5051628;28;20452;-63
2024/03/30 12:53:59;;;;;;;11.07;2.53;;;17.00;64.70;;;;;;5051609;28;20413;-63
2024/03/30 12:56:26;;;;;;;9.90;2.30;;;16.90;64.00;;;;;;5051534;28;20420;-63